📊 Raw Sensor Data

Showing records 36451 to 36475 of 84,896 total

ID Distance (ft) Battery V Battery A Int Temp (°F) Int Humid (%) Ext Temp (°F) Solar V RSSI SNR Time Stamp
48458 15.2 3.96 0 94 58 87 4.60 -69 8 08/06/2025 07:45 PM
48457 15.2 3.90 0 100 55 92 4.60 -69 8 08/06/2025 07:30 PM
48456 15.3 3.98 6 106 53 99 4.60 -68 8 08/06/2025 07:15 PM
48455 15.3 3.95 0 109 51 102 4.60 -68 8 08/06/2025 07:00 PM
48454 15.3 4.01 31 109 50 103 4.60 -68 9 08/06/2025 06:45 PM
48453 15.3 3.94 0 109 50 103 5.10 -69 8 08/06/2025 06:30 PM
48452 15.3 4.12 5 110 49 103 5.10 -71 7 08/06/2025 06:15 PM
48451 15.3 3.94 0 110 48 103 5.10 -69 8 08/06/2025 06:00 PM
48450 15.4 3.94 5 110 46 103 5.10 -70 8 08/06/2025 05:45 PM
48449 15.3 3.94 0 108 46 95 5.10 -69 7 08/06/2025 05:30 PM
48448 15.3 3.94 5 106 47 97 5.10 -69 8 08/06/2025 05:15 PM
48447 15.3 3.94 5 106 48 95 5.10 -67 8 08/06/2025 05:00 PM
48446 15.3 3.94 0 107 47 99 5.10 -68 8 08/06/2025 04:45 PM
48445 15.4 3.94 5 105 49 92 5.10 -69 8 08/06/2025 04:30 PM
48444 15.4 3.94 0 110 45 99 5.10 -69 8 08/06/2025 04:15 PM
48443 15.4 4.00 0 109 45 97 5.10 -69 8 08/06/2025 04:00 PM
48442 15.4 3.94 0 109 44 97 5.10 -69 8 08/06/2025 03:45 PM
48441 15.3 3.96 5 106 45 95 5.10 -69 8 08/06/2025 03:30 PM
48440 15.4 4.00 5 107 44 94 5.10 -68 8 08/06/2025 03:15 PM
48439 15.3 3.93 0 107 42 100 5.20 -69 8 08/06/2025 03:00 PM
48438 15.3 3.93 0 107 41 95 5.10 -69 8 08/06/2025 02:45 PM
48437 15.3 3.93 5 103 42 94 5.10 -68 8 08/06/2025 02:30 PM
48436 15.3 3.93 0 102 42 90 5.10 -68 7 08/06/2025 02:15 PM
48435 15.3 3.93 0 102 41 92 5.10 -69 8 08/06/2025 02:00 PM
48434 15.3 3.93 0 100 42 93 5.20 -70 8 08/06/2025 01:45 PM